createdAt,value
2023-01-29T00:02:05.757Z,17.97
2023-01-29T00:04:33.931Z,15.73
2023-01-29T00:07:03.502Z,16.30
2023-01-29T00:09:32.109Z,16.87
2023-01-29T00:12:01.162Z,16.90
2023-01-29T00:14:29.189Z,18.27
2023-01-29T00:16:57.046Z,16.90
2023-01-29T00:19:24.820Z,15.60
2023-01-29T00:21:52.832Z,16.50
2023-01-29T00:24:22.642Z,16.80
2023-01-29T00:26:51.412Z,17.43
2023-01-29T00:29:19.271Z,17.07
2023-01-29T00:31:47.363Z,15.90
2023-01-29T00:34:15.199Z,15.73
2023-01-29T00:36:44.599Z,16.90
2023-01-29T00:39:12.345Z,18.10
2023-01-29T00:41:59.221Z,17.83
2023-01-29T00:44:44.319Z,17.33
2023-01-29T00:47:30.902Z,15.33
2023-01-29T00:49:59.254Z,16.97
2023-01-29T00:52:28.633Z,16.60
2023-01-29T00:54:57.881Z,17.53
2023-01-29T00:57:29.338Z,16.90
2023-01-29T00:59:58.802Z,18.67
2023-01-29T01:02:45.568Z,17.03
2023-01-29T01:05:18.016Z,17.10
2023-01-29T01:07:46.704Z,17.87
2023-01-29T01:10:22.128Z,16.83
2023-01-29T01:12:55.914Z,17.20
2023-01-29T01:15:24.736Z,18.03
2023-01-29T01:17:57.548Z,18.00
2023-01-29T01:20:26.541Z,18.07
2023-01-29T01:22:55.441Z,17.53
2023-01-29T01:25:23.598Z,17.90
2023-01-29T01:27:55.546Z,18.17
2023-01-29T01:30:24.184Z,17.87
2023-01-29T01:32:53.702Z,17.87
2023-01-29T01:35:21.775Z,18.47
2023-01-29T01:37:49.482Z,18.20
2023-01-29T01:40:19.942Z,20.53
2023-01-29T01:42:49.564Z,17.67
2023-01-29T01:45:25.839Z,18.73
2023-01-29T01:47:57.583Z,17.50
2023-01-29T01:50:30.980Z,17.93
2023-01-29T01:53:05.874Z,16.93
2023-01-29T01:55:35.127Z,19.63
2023-01-29T01:58:07.867Z,17.73
2023-01-29T02:00:37.554Z,18.37
2023-01-29T02:03:24.901Z,18.50
2023-01-29T02:06:13.121Z,18.53
2023-01-29T02:09:08.057Z,18.67
2023-01-29T02:11:36.044Z,17.47
2023-01-29T02:14:03.740Z,18.27
2023-01-29T02:16:35.632Z,19.10
2023-01-29T02:19:04.752Z,19.57
2023-01-29T02:22:07.031Z,17.57
2023-01-29T02:25:09.735Z,17.33
2023-01-29T02:28:03.496Z,17.80
2023-01-29T02:30:37.365Z,17.03
2023-01-29T02:33:15.033Z,17.17
2023-01-29T02:35:45.977Z,16.83
2023-01-29T02:38:20.947Z,20.50
2023-01-29T02:40:56.718Z,17.80
2023-01-29T02:43:35.522Z,17.23
2023-01-29T02:46:12.610Z,18.67
2023-01-29T02:48:46.822Z,17.93
2023-01-29T02:51:20.535Z,17.57
2023-01-29T02:53:59.625Z,17.73
2023-01-29T02:56:31.972Z,18.07
2023-01-29T02:59:05.625Z,18.03
2023-01-29T03:01:39.947Z,18.70
2023-01-29T03:04:11.750Z,17.70
2023-01-29T03:06:44.151Z,18.17
2023-01-29T03:09:17.891Z,17.57
2023-01-29T03:11:50.958Z,18.50
2023-01-29T03:14:24.689Z,19.13
2023-01-29T03:16:54.380Z,17.73
2023-01-29T03:19:29.724Z,18.07
2023-01-29T03:22:04.332Z,18.97
2023-01-29T03:24:54.245Z,17.07
2023-01-29T03:27:43.540Z,17.90
2023-01-29T03:30:34.607Z,18.80
2023-01-29T03:33:06.450Z,18.17
2023-01-29T03:35:39.853Z,18.83
2023-01-29T03:38:11.063Z,17.50
2023-01-29T03:40:45.662Z,18.87
2023-01-29T03:43:20.401Z,18.00
2023-01-29T03:46:00.020Z,19.43
2023-01-29T03:48:34.885Z,19.07
2023-01-29T03:51:16.279Z,16.93
2023-01-29T03:53:48.916Z,18.13
2023-01-29T03:56:28.722Z,17.97
2023-01-29T03:59:00.315Z,17.07
2023-01-29T04:01:39.649Z,17.33
2023-01-29T04:04:13.787Z,18.80
2023-01-29T04:06:44.864Z,20.37
2023-01-29T04:09:17.577Z,17.53
2023-01-29T04:11:51.446Z,22.50
2023-01-29T04:14:19.831Z,17.87
2023-01-29T04:16:53.403Z,17.13
2023-01-29T04:19:21.350Z,17.77
2023-01-29T04:21:51.974Z,17.67
2023-01-29T04:24:21.868Z,18.53
2023-01-29T04:27:02.019Z,17.77
2023-01-29T04:29:40.712Z,19.07
2023-01-29T04:32:16.243Z,20.77
2023-01-29T04:34:56.109Z,19.83
2023-01-29T04:37:35.330Z,19.03
2023-01-29T04:40:12.220Z,19.47
2023-01-29T04:42:49.625Z,18.90
2023-01-29T04:45:25.275Z,19.07
2023-01-29T04:48:02.164Z,21.90
2023-01-29T04:50:35.813Z,21.00
2023-01-29T04:53:09.201Z,20.07
2023-01-29T04:55:44.025Z,18.90
2023-01-29T04:58:17.679Z,19.33
2023-01-29T05:00:49.275Z,21.70
2023-01-29T05:03:18.628Z,19.53
2023-01-29T05:05:49.863Z,18.40
2023-01-29T05:08:20.995Z,19.87
2023-01-29T05:10:51.486Z,21.47
2023-01-29T05:13:21.564Z,19.10
2023-01-29T05:16:01.525Z,17.20
2023-01-29T05:18:31.729Z,19.97
2023-01-29T05:21:03.119Z,18.47
2023-01-29T05:23:30.965Z,20.83
2023-01-29T05:25:58.710Z,18.87
2023-01-29T05:28:25.450Z,19.17
2023-01-29T05:30:55.121Z,18.40
2023-01-29T05:33:25.585Z,18.17
2023-01-29T05:35:55.514Z,18.47
2023-01-29T05:38:24.486Z,18.00
2023-01-29T05:40:52.306Z,17.60
2023-01-29T05:43:22.603Z,19.43
2023-01-29T05:45:54.764Z,18.87
2023-01-29T05:48:23.146Z,17.87
2023-01-29T05:50:51.719Z,19.70
2023-01-29T05:53:21.806Z,19.20
2023-01-29T05:55:50.120Z,21.87
2023-01-29T05:58:19.761Z,19.63
2023-01-29T06:00:49.033Z,20.40
2023-01-29T06:03:16.959Z,21.37
2023-01-29T06:05:45.463Z,19.83
2023-01-29T06:08:14.408Z,20.63
2023-01-29T06:10:45.111Z,20.87
2023-01-29T06:13:12.888Z,20.40
2023-01-29T06:15:42.346Z,21.00
2023-01-29T06:18:10.274Z,20.00
2023-01-29T06:20:38.143Z,21.30
2023-01-29T06:23:05.928Z,22.23
2023-01-29T06:25:33.663Z,21.13
2023-01-29T06:28:02.868Z,20.97
2023-01-29T06:30:31.981Z,19.83
2023-01-29T06:33:01.722Z,20.20
2023-01-29T06:35:29.599Z,21.30
2023-01-29T06:37:58.159Z,21.53
2023-01-29T06:40:25.897Z,20.50
2023-01-29T06:42:54.869Z,22.17
2023-01-29T06:45:24.292Z,22.97
2023-01-29T06:47:52.770Z,22.17
2023-01-29T06:50:20.995Z,20.47
2023-01-29T06:52:48.705Z,21.57
2023-01-29T06:55:16.979Z,20.83
2023-01-29T06:57:44.796Z,21.33
2023-01-29T07:00:13.759Z,23.30
2023-01-29T07:02:43.222Z,21.30
2023-01-29T07:05:10.895Z,21.87
2023-01-29T07:07:38.844Z,23.47
2023-01-29T07:10:07.760Z,23.67
2023-01-29T07:12:35.735Z,22.57
2023-01-29T07:15:04.144Z,23.30
2023-01-29T07:17:32.121Z,21.73
2023-01-29T07:20:01.398Z,22.53
2023-01-29T07:22:29.147Z,21.53
2023-01-29T07:24:57.022Z,23.33
2023-01-29T07:27:25.015Z,24.33
2023-01-29T07:29:53.029Z,22.83
2023-01-29T07:32:21.033Z,23.70
2023-01-29T07:34:48.863Z,25.40
2023-01-29T07:37:18.023Z,24.20
2023-01-29T07:39:47.783Z,23.20
2023-01-29T07:42:15.645Z,21.53
2023-01-29T07:44:43.433Z,24.03
2023-01-29T07:47:11.949Z,25.47
2023-01-29T07:49:39.812Z,25.73
2023-01-29T07:52:07.777Z,25.33
2023-01-29T07:54:36.875Z,23.67
2023-01-29T07:57:04.709Z,23.97
2023-01-29T07:59:32.397Z,24.03
2023-01-29T08:02:00.467Z,26.50
2023-01-29T08:04:28.382Z,27.20
2023-01-29T08:06:56.419Z,26.47
2023-01-29T08:09:24.190Z,25.27
2023-01-29T08:11:54.545Z,25.83
2023-01-29T08:14:22.490Z,23.93
2023-01-29T08:16:51.449Z,23.20
2023-01-29T08:19:19.218Z,27.23
2023-01-29T08:21:47.002Z,25.47
2023-01-29T08:24:15.170Z,26.07
2023-01-29T08:26:42.897Z,27.37
2023-01-29T08:29:12.130Z,28.63
2023-01-29T08:31:39.991Z,28.57
2023-01-29T08:34:07.996Z,27.27
2023-01-29T08:36:36.113Z,30.33
2023-01-29T08:39:04.207Z,27.83
2023-01-29T08:41:31.905Z,28.93
2023-01-29T08:44:01.406Z,27.03
2023-01-29T08:46:31.524Z,29.77
2023-01-29T08:48:59.726Z,26.90
2023-01-29T08:51:27.849Z,31.33
2023-01-29T08:53:55.874Z,29.17
2023-01-29T08:56:24.028Z,30.23
2023-01-29T08:58:52.036Z,28.20
2023-01-29T09:01:20.042Z,27.33
2023-01-29T09:03:50.373Z,30.07
2023-01-29T09:06:18.285Z,29.80
2023-01-29T09:08:46.387Z,30.03
2023-01-29T09:11:14.849Z,28.67
2023-01-29T09:13:42.866Z,28.00
2023-01-29T09:16:11.015Z,27.80
2023-01-29T09:18:38.740Z,29.60
2023-01-29T09:21:08.773Z,29.50
2023-01-29T09:23:36.608Z,30.47
2023-01-29T09:26:04.875Z,29.17
2023-01-29T09:28:33.071Z,32.20
2023-01-29T09:31:02.480Z,32.90
2023-01-29T09:33:31.017Z,38.97
2023-01-29T09:35:59.030Z,36.83
2023-01-29T09:38:28.238Z,33.00
2023-01-29T09:41:07.307Z,38.07
2023-01-29T09:43:47.118Z,64.17
2023-01-29T09:46:22.140Z,46.70
2023-01-29T09:48:56.411Z,33.03
2023-01-29T09:51:30.654Z,30.20
2023-01-29T09:54:10.400Z,29.60
2023-01-29T09:56:38.195Z,28.33
2023-01-29T09:59:06.432Z,27.27
2023-01-29T10:01:42.820Z,28.03
2023-01-29T10:04:30.545Z,26.63
2023-01-29T10:07:17.731Z,26.17
2023-01-29T10:10:11.978Z,26.17
2023-01-29T10:13:02.394Z,25.83
2023-01-29T10:15:42.385Z,27.90
2023-01-29T10:18:44.794Z,27.40
2023-01-29T10:21:30.065Z,27.43
2023-01-29T10:24:06.570Z,28.57
2023-01-29T10:26:38.031Z,28.10
2023-01-29T10:29:09.292Z,27.00
2023-01-29T10:31:40.705Z,25.00
2023-01-29T10:34:14.309Z,26.80
2023-01-29T10:36:46.015Z,26.63
2023-01-29T10:39:18.836Z,26.50
2023-01-29T10:42:02.925Z,26.67
2023-01-29T10:44:41.406Z,26.17
2023-01-29T10:47:24.837Z,25.73
2023-01-29T10:50:06.313Z,27.53
2023-01-29T10:52:50.103Z,26.20
2023-01-29T10:55:31.811Z,27.37
2023-01-29T10:58:09.290Z,26.57
2023-01-29T11:00:39.843Z,23.60
2023-01-29T11:03:27.056Z,26.67
2023-01-29T11:06:00.388Z,25.53
2023-01-29T11:08:32.914Z,25.93
2023-01-29T11:11:08.501Z,25.70
2023-01-29T11:13:44.695Z,23.97
2023-01-29T11:16:12.563Z,25.47
2023-01-29T11:18:51.025Z,24.80
2023-01-29T11:21:18.709Z,23.73
2023-01-29T11:23:46.875Z,23.77
2023-01-29T11:26:20.894Z,24.77
2023-01-29T11:28:51.690Z,21.77
2023-01-29T11:31:23.763Z,23.23
2023-01-29T11:33:54.944Z,22.33
2023-01-29T11:36:32.879Z,22.53
2023-01-29T11:39:23.089Z,20.53
2023-01-29T11:41:54.561Z,21.53
2023-01-29T11:44:29.666Z,20.73
2023-01-29T11:47:00.749Z,22.60
2023-01-29T11:49:35.117Z,22.07
2023-01-29T11:52:05.701Z,20.90
2023-01-29T11:54:39.787Z,22.97
2023-01-29T11:57:23.533Z,21.40
2023-01-29T11:59:54.716Z,22.27
2023-01-29T12:02:30.764Z,23.07
2023-01-29T12:05:01.727Z,20.97
2023-01-29T12:07:30.283Z,22.17
2023-01-29T12:10:00.178Z,23.37
2023-01-29T12:12:30.977Z,21.80
2023-01-29T12:15:25.518Z,20.07
2023-01-29T12:18:09.526Z,21.77
2023-01-29T12:20:43.705Z,21.83
2023-01-29T12:23:26.749Z,21.17
2023-01-29T12:26:01.882Z,22.17
2023-01-29T12:28:43.990Z,25.50
2023-01-29T12:31:30.038Z,20.63
2023-01-29T12:34:06.604Z,20.80
2023-01-29T12:36:39.525Z,20.47
2023-01-29T12:39:07.434Z,22.43
2023-01-29T12:41:46.048Z,21.20
2023-01-29T12:44:20.897Z,24.53
2023-01-29T12:46:55.595Z,21.70
2023-01-29T12:49:26.050Z,21.27
2023-01-29T12:51:59.487Z,21.03
2023-01-29T12:54:35.586Z,21.63
2023-01-29T12:57:09.138Z,22.77
2023-01-29T12:59:43.310Z,20.63
2023-01-29T13:02:33.777Z,24.17
2023-01-29T13:05:06.114Z,20.77
2023-01-29T13:07:40.272Z,20.20
2023-01-29T13:10:13.643Z,23.40
2023-01-29T13:12:52.606Z,22.37
2023-01-29T13:15:25.623Z,24.57
2023-01-29T13:17:58.832Z,22.00
2023-01-29T13:20:31.039Z,22.03
2023-01-29T13:23:04.164Z,25.03
2023-01-29T13:25:33.698Z,21.57
2023-01-29T13:28:01.961Z,23.27
2023-01-29T13:30:31.506Z,23.23
2023-01-29T13:33:10.433Z,21.70
2023-01-29T13:35:43.152Z,21.13
2023-01-29T13:38:26.060Z,24.83
2023-01-29T13:40:56.642Z,23.50
2023-01-29T13:43:25.334Z,22.97
2023-01-29T13:45:55.361Z,23.40
2023-01-29T13:48:28.246Z,24.87
2023-01-29T13:50:57.872Z,22.67
2023-01-29T13:53:28.512Z,20.53
2023-01-29T13:55:56.356Z,22.87
2023-01-29T13:58:55.440Z,24.43
2023-01-29T14:01:56.423Z,22.07
2023-01-29T14:04:29.933Z,23.07
2023-01-29T14:06:58.715Z,22.63
2023-01-29T14:10:03.353Z,23.17
2023-01-29T14:12:48.279Z,23.07
2023-01-29T14:15:28.986Z,22.83
2023-01-29T14:18:15.921Z,24.07
2023-01-29T14:20:54.920Z,21.20
2023-01-29T14:23:29.543Z,22.63
2023-01-29T14:25:58.272Z,22.33
2023-01-29T14:28:31.798Z,22.80
2023-01-29T14:31:00.807Z,20.60
2023-01-29T14:33:33.216Z,22.00
2023-01-29T14:36:07.217Z,20.40
2023-01-29T14:38:35.427Z,21.00
2023-01-29T14:41:06.897Z,19.70
2023-01-29T14:43:35.005Z,21.07
2023-01-29T14:46:42.797Z,20.23
2023-01-29T14:49:10.937Z,20.53
2023-01-29T14:51:44.731Z,20.70
2023-01-29T14:54:24.751Z,19.93
2023-01-29T14:57:00.468Z,19.17
2023-01-29T14:59:34.043Z,18.70
2023-01-29T15:02:06.617Z,22.47
2023-01-29T15:04:41.734Z,19.90
2023-01-29T15:07:21.184Z,18.73
2023-01-29T15:10:01.346Z,22.70
2023-01-29T15:12:47.536Z,21.10
2023-01-29T15:15:19.744Z,20.03
2023-01-29T15:17:56.811Z,21.27
2023-01-29T15:20:30.974Z,18.77
2023-01-29T15:23:00.716Z,20.40
2023-01-29T15:25:33.856Z,21.70
2023-01-29T15:28:02.383Z,19.60
2023-01-29T15:30:34.160Z,22.03
2023-01-29T15:33:03.059Z,19.83
2023-01-29T15:35:36.872Z,18.87
2023-01-29T15:38:08.825Z,20.37
2023-01-29T15:40:36.681Z,19.33
2023-01-29T15:43:20.729Z,20.27
2023-01-29T15:45:49.007Z,18.87
2023-01-29T15:48:20.444Z,16.97
2023-01-29T15:50:51.640Z,18.20
2023-01-29T15:53:24.962Z,17.90
2023-01-29T15:55:54.012Z,18.13
2023-01-29T15:58:29.702Z,17.67
2023-01-29T16:01:00.013Z,19.17
2023-01-29T16:03:31.878Z,17.63
2023-01-29T16:06:00.296Z,24.97
2023-01-29T16:08:30.382Z,19.67
2023-01-29T16:11:00.827Z,18.17
2023-01-29T16:13:30.902Z,18.70
2023-01-29T16:16:00.821Z,20.30
2023-01-29T16:18:33.041Z,21.03
2023-01-29T16:21:05.547Z,18.77
2023-01-29T16:23:42.168Z,20.87
2023-01-29T16:26:16.648Z,19.43
2023-01-29T16:28:46.122Z,18.60
2023-01-29T16:31:21.860Z,19.50
2023-01-29T16:33:49.727Z,19.67
2023-01-29T16:36:19.695Z,19.67
2023-01-29T16:38:54.283Z,18.33
2023-01-29T16:41:32.599Z,18.27
2023-01-29T16:44:02.852Z,20.03
2023-01-29T16:46:35.914Z,19.20
2023-01-29T16:49:06.426Z,18.77
2023-01-29T16:51:39.548Z,21.03
2023-01-29T16:54:16.130Z,17.60
2023-01-29T16:56:46.221Z,19.73
2023-01-29T16:59:19.714Z,19.93
2023-01-29T17:01:49.448Z,19.73
2023-01-29T17:04:19.552Z,18.00
2023-01-29T17:06:51.187Z,18.07
2023-01-29T17:09:36.062Z,16.93
2023-01-29T17:12:08.062Z,17.60
2023-01-29T17:14:39.382Z,17.80
2023-01-29T17:17:09.220Z,18.90
2023-01-29T17:19:37.482Z,18.43
2023-01-29T17:22:08.463Z,18.37
2023-01-29T17:24:38.318Z,16.97
2023-01-29T17:27:06.093Z,17.53
2023-01-29T17:29:34.741Z,18.17
2023-01-29T17:32:02.666Z,16.57
2023-01-29T17:34:30.371Z,17.73
2023-01-29T17:36:58.418Z,16.20
2023-01-29T17:39:27.504Z,17.63
2023-01-29T17:41:59.087Z,17.00
2023-01-29T17:44:27.084Z,22.53
2023-01-29T17:46:55.734Z,29.37
2023-01-29T17:49:26.509Z,23.60
2023-01-29T17:51:55.339Z,19.50
2023-01-29T17:54:24.199Z,22.57
2023-01-29T17:56:53.641Z,20.40
2023-01-29T17:59:24.488Z,19.37
2023-01-29T18:01:53.189Z,19.47
2023-01-29T18:04:21.251Z,16.63
2023-01-29T18:06:51.685Z,16.37
2023-01-29T18:09:21.423Z,18.83
2023-01-29T18:11:50.364Z,18.67
2023-01-29T18:14:19.882Z,17.60
2023-01-29T18:16:49.529Z,16.83
2023-01-29T18:19:22.179Z,16.00
2023-01-29T18:21:50.853Z,19.47
2023-01-29T18:24:20.506Z,18.60
2023-01-29T18:26:48.615Z,20.27
2023-01-29T18:29:16.693Z,19.10
2023-01-29T18:31:44.694Z,19.53
2023-01-29T18:34:14.971Z,20.63
2023-01-29T18:36:46.640Z,21.57
2023-01-29T18:39:14.984Z,21.27
2023-01-29T18:41:42.960Z,19.13
2023-01-29T18:44:11.392Z,18.27
2023-01-29T18:46:39.366Z,21.57
2023-01-29T18:49:08.376Z,20.40
2023-01-29T18:51:37.544Z,20.77
2023-01-29T18:54:05.458Z,23.77
2023-01-29T18:56:33.775Z,22.60
2023-01-29T18:59:01.479Z,19.03
2023-01-29T19:01:32.019Z,21.73
2023-01-29T19:04:00.406Z,21.07
2023-01-29T19:06:28.237Z,19.97
2023-01-29T19:08:57.622Z,21.07
2023-01-29T19:11:25.304Z,22.60
2023-01-29T19:13:53.253Z,20.07
2023-01-29T19:16:21.265Z,19.20
2023-01-29T19:18:49.088Z,17.80
2023-01-29T19:21:17.927Z,19.33
2023-01-29T19:23:46.133Z,22.53
2023-01-29T19:26:16.271Z,18.43
2023-01-29T19:28:44.412Z,19.87
2023-01-29T19:31:12.114Z,18.83
2023-01-29T19:33:40.467Z,16.90
2023-01-29T19:36:09.737Z,23.03
2023-01-29T19:38:38.919Z,18.13
2023-01-29T19:41:07.231Z,18.67
2023-01-29T19:43:38.306Z,16.33
2023-01-29T19:46:07.712Z,19.80
2023-01-29T19:48:35.784Z,17.83
2023-01-29T19:51:06.885Z,20.03
2023-01-29T19:53:34.558Z,18.90
2023-01-29T19:56:04.032Z,18.73
2023-01-29T19:58:33.007Z,17.53
2023-01-29T20:01:07.004Z,16.53
2023-01-29T20:03:38.000Z,17.13
2023-01-29T20:06:07.155Z,17.73
2023-01-29T20:08:36.191Z,16.17
2023-01-29T20:11:05.786Z,15.30
2023-01-29T20:13:34.049Z,16.50
2023-01-29T20:16:05.473Z,16.60
2023-01-29T20:18:34.011Z,16.50
2023-01-29T20:21:07.968Z,16.67
2023-01-29T20:23:38.477Z,16.67
2023-01-29T20:26:07.122Z,17.37
2023-01-29T20:28:36.271Z,16.50
2023-01-29T20:31:07.365Z,17.10
2023-01-29T20:33:38.180Z,17.47
2023-01-29T20:36:08.640Z,14.97
2023-01-29T20:38:36.747Z,16.10
2023-01-29T20:41:06.616Z,15.83
2023-01-29T20:43:34.985Z,15.40
2023-01-29T20:46:04.071Z,14.90
2023-01-29T20:48:33.910Z,14.83
2023-01-29T20:51:08.027Z,15.93
2023-01-29T20:53:36.301Z,14.23
2023-01-29T20:56:04.851Z,14.07
2023-01-29T20:58:33.126Z,14.47
2023-01-29T21:01:01.384Z,15.27
2023-01-29T21:03:29.260Z,17.27
2023-01-29T21:05:59.922Z,15.17
2023-01-29T21:08:27.673Z,14.00
2023-01-29T21:10:55.445Z,14.17
2023-01-29T21:13:23.193Z,14.07
2023-01-29T21:15:51.699Z,13.87
2023-01-29T21:18:19.397Z,12.93
2023-01-29T21:20:47.221Z,13.43
2023-01-29T21:23:16.854Z,14.37
2023-01-29T21:25:45.175Z,13.73
2023-01-29T21:28:13.800Z,14.73
2023-01-29T21:30:41.846Z,12.80
2023-01-29T21:33:09.917Z,14.00
2023-01-29T21:35:38.516Z,13.40
2023-01-29T21:38:06.585Z,13.63
2023-01-29T21:40:37.360Z,13.03
2023-01-29T21:43:13.574Z,13.90
2023-01-29T21:45:42.356Z,13.77
2023-01-29T21:48:10.943Z,13.60
2023-01-29T21:50:39.313Z,13.23
2023-01-29T21:53:08.005Z,16.00
2023-01-29T21:55:37.700Z,17.83
2023-01-29T21:58:05.403Z,14.67
2023-01-29T22:00:33.586Z,14.63
2023-01-29T22:03:01.759Z,14.70
2023-01-29T22:05:30.333Z,14.07
2023-01-29T22:07:58.276Z,13.63
2023-01-29T22:10:26.466Z,13.53
2023-01-29T22:12:55.793Z,13.30
2023-01-29T22:15:24.108Z,14.20
2023-01-29T22:17:52.433Z,15.37
2023-01-29T22:20:21.061Z,15.67
2023-01-29T22:22:48.864Z,14.33
2023-01-29T22:25:20.174Z,15.60
2023-01-29T22:27:48.183Z,15.20
2023-01-29T22:30:20.655Z,13.50
2023-01-29T22:32:48.595Z,14.97
2023-01-29T22:35:16.466Z,13.93
2023-01-29T22:37:45.178Z,15.80
2023-01-29T22:40:14.263Z,15.57
2023-01-29T22:42:42.669Z,15.33
2023-01-29T22:45:11.327Z,16.17
2023-01-29T22:47:41.828Z,16.40
2023-01-29T22:50:10.769Z,14.90
2023-01-29T22:52:42.781Z,15.53
2023-01-29T22:55:13.336Z,15.97
2023-01-29T22:57:41.501Z,16.73
2023-01-29T23:00:11.956Z,15.30
2023-01-29T23:02:41.333Z,16.23
2023-01-29T23:05:09.735Z,16.33
2023-01-29T23:07:38.360Z,17.53
2023-01-29T23:10:07.387Z,17.10
2023-01-29T23:12:35.455Z,21.23
2023-01-29T23:15:05.000Z,18.27
2023-01-29T23:17:32.768Z,19.87
2023-01-29T23:20:02.224Z,17.03
2023-01-29T23:22:29.901Z,18.17
2023-01-29T23:24:57.902Z,19.77
2023-01-29T23:27:24.765Z,19.13
2023-01-29T23:29:52.715Z,20.83
2023-01-29T23:32:21.769Z,20.50
2023-01-29T23:34:49.414Z,21.57
2023-01-29T23:37:18.844Z,17.97
2023-01-29T23:39:46.609Z,19.00
2023-01-29T23:42:15.638Z,19.50
2023-01-29T23:44:44.208Z,17.60
2023-01-29T23:47:11.882Z,17.27
2023-01-29T23:49:39.988Z,17.03
2023-01-29T23:52:08.051Z,18.67
2023-01-29T23:54:37.342Z,20.33
2023-01-29T23:57:05.217Z,18.10
2023-01-29T23:59:33.067Z,19.00
